Julie — WCX8613 — position and weather

sailwx.info

Track history (hours):
 
Tides and Currents Weather Stations Pressure Air Temp Water Temp Dewpoint Dewpoint Depression Visibility Wind Speed Wind Dir Waves Ship Positions

Julie

Owner: PENN MARITIME INC, SEATTLE, WA. More information available from US FCC via Universal Licensing System and Coast Guard Vessel Documentation Center.

Last reported at 2014-Nov-14 08:29 UTC. Time now 2014-Nov-25 20:52 UTC.
Position N 29°55' W 089°57'.
Warning: this ship's position is 11 days out of date.

Length 179 m; draft 9 m.

Type: Tow > 200 m length. MMSI: 368148000.

Date/timePositionNaut miles runAvg speedWind from/ knotsBaromVisibWave heightAir tempDewpointWater temp
2014-Nov-14 08:29N 29°55' W 089°57'6 0.1
2014-Nov-12 15:28N 29°56' W 090°03'  
2014-Nov-08 21:13N 29°25' W 094°50'711.2
2014-Nov-08 20:34N 29°32' W 094°53'1111.1
2014-Nov-08 19:34N 29°42' W 094°59'7 6.8
2014-Nov-08 18:34N 29°45' W 095°06'0 0.1
2014-Nov-08 17:34N 29°45' W 095°06'0 0.0
2014-Nov-08 16:31N 29°45' W 095°06'0 0.0
2014-Nov-08 15:28N 29°45' W 095°06'0 0.0
2014-Nov-08 14:31N 29°45' W 095°06'0 0.0
2014-Nov-08 13:28N 29°45' W 095°06'0 0.0
2014-Nov-08 10:28N 29°45' W 095°06'0 0.0
2014-Nov-08 09:31N 29°45' W 095°06'0 0.0
2014-Nov-08 08:25N 29°45' W 095°06'0 0.0
2014-Nov-08 06:25N 29°45' W 095°06'0 0.0
2014-Nov-07 23:13N 29°45' W 095°06'0 0.0
2014-Nov-07 22:31N 29°45' W 095°06'0 0.0
2014-Nov-07 21:31N 29°45' W 095°06'0 0.0
2014-Nov-07 20:31N 29°45' W 095°06'0 0.0
2014-Nov-07 19:31N 29°45' W 095°06'0 0.0
2014-Nov-07 18:31N 29°45' W 095°06'0 0.0
2014-Nov-07 17:33N 29°45' W 095°06'5 4.7
2014-Nov-07 16:33N 29°43' W 095°01'9 8.8
2014-Nov-07 15:33N 29°35' W 094°56'10 9.6
2014-Nov-07 14:33N 29°27' W 094°51'  
Track history (hours):
 
Tides and Currents Weather Stations Pressure Air Temp Water Temp Dewpoint Dewpoint Depression Visibility Wind Speed Wind Dir Waves Ship Positions

Julie

Owner: PENN MARITIME INC, SEATTLE, WA. More information available from US FCC via Universal Licensing System and Coast Guard Vessel Documentation Center.

Last reported at 2014-Nov-14 08:29 UTC. Time now 2014-Nov-25 20:52 UTC.
Position N 29°55' W 089°57'.
Warning: this ship's position is 11 days out of date.

Length 179 m; draft 9 m.

Type: Tow > 200 m length. MMSI: 368148000.

Date/timePositionNaut miles runAvg speedWind from/ knotsBaromVisibWave heightAir tempDewpointWater temp
2014-Nov-14 08:29N 29°55' W 089°57'6 0.1
2014-Nov-12 15:28N 29°56' W 090°03'  
2014-Nov-08 21:13N 29°25' W 094°50'711.2
2014-Nov-08 20:34N 29°32' W 094°53'1111.1
2014-Nov-08 19:34N 29°42' W 094°59'7 6.8
2014-Nov-08 18:34N 29°45' W 095°06'0 0.1
2014-Nov-08 17:34N 29°45' W 095°06'0 0.0
2014-Nov-08 16:31N 29°45' W 095°06'0 0.0
2014-Nov-08 15:28N 29°45' W 095°06'0 0.0
2014-Nov-08 14:31N 29°45' W 095°06'0 0.0
2014-Nov-08 13:28N 29°45' W 095°06'0 0.0
2014-Nov-08 10:28N 29°45' W 095°06'0 0.0
2014-Nov-08 09:31N 29°45' W 095°06'0 0.0
2014-Nov-08 08:25N 29°45' W 095°06'0 0.0
2014-Nov-08 06:25N 29°45' W 095°06'0 0.0
2014-Nov-07 23:13N 29°45' W 095°06'0 0.0
2014-Nov-07 22:31N 29°45' W 095°06'0 0.0
2014-Nov-07 21:31N 29°45' W 095°06'0 0.0
2014-Nov-07 20:31N 29°45' W 095°06'0 0.0
2014-Nov-07 19:31N 29°45' W 095°06'0 0.0
2014-Nov-07 18:31N 29°45' W 095°06'0 0.0
2014-Nov-07 17:33N 29°45' W 095°06'5 4.7
2014-Nov-07 16:33N 29°43' W 095°01'9 8.8
2014-Nov-07 15:33N 29°35' W 094°56'10 9.6
2014-Nov-07 14:33N 29°27' W 094°51'  

Dump ship's entire track history